Time;durP1;ratioP1;P1;durP2;ratioP2;P2;SDS_P1;SDS_P2;PMS_P1;PMS_P2;Temp;Humidity;BMP_temperature;BMP_pressure;BME280_temperature;BME280_humidity;BME280_pressure;Samples;Min_cycle;Max_cycle;Signal;HPM_P1;HPM_P2
2022/01/24 00:02:19;;;;;;;4.43;2.53;;;;;;;17.73;46.30;98970.97;6069796;23;20171;-83
2022/01/24 00:04:48;;;;;;;3.93;2.70;;;;;;;17.79;46.64;98984.09;6070143;23;20625;-84
2022/01/24 00:07:18;;;;;;;3.23;2.37;;;;;;;17.62;46.68;98955.00;6065191;23;20252;-83
2022/01/24 00:09:45;;;;;;;2.83;2.20;;;;;;;17.40;46.78;98917.84;6043169;23;20639;-83
2022/01/24 00:12:26;;;;;;;2.87;2.40;;;;;;;18.03;46.63;99031.56;6041406;23;20604;-83
2022/01/24 00:18:27;;;;;;;2.93;2.60;;;;;;;17.94;46.55;99021.63;6044980;23;20236;-83
2022/01/24 00:28:28;;;;;;;3.63;2.33;;;;;;;16.83;46.54;98820.81;6075237;23;20180;-88
2022/01/24 00:30:55;;;;;;;2.30;2.10;;;;;;;18.41;46.80;99169.03;6071946;23;20160;-88
2022/01/24 00:33:23;;;;;;;2.60;2.20;;;;;;;13.86;46.68;98365.59;6095601;23;20148;-88
2022/01/24 00:35:51;;;;;;;3.10;2.17;;;;;;;15.72;46.66;98643.94;6072621;23;20201;-86
2022/01/24 00:38:33;;;;;;;2.50;2.30;;;;;;;13.72;46.67;98267.78;6094875;23;20215;-88
2022/01/24 00:41:04;;;;;;;3.23;2.50;;;;;;;10.90;46.61;97776.47;6096398;23;20145;-87
2022/01/24 00:43:48;;;;;;;3.27;2.30;;;;;;;10.46;46.43;97699.41;6096367;23;20201;-86
2022/01/24 00:46:42;;;;;;;3.73;2.50;;;;;;;13.90;46.24;98339.81;6096483;23;20187;-89
2022/01/24 00:54:47;;;;;;;2.90;2.20;;;;;;;17.87;46.69;98988.94;6064682;23;20256;-82
2022/01/24 00:57:14;;;;;;;2.43;2.23;;;;;;;17.67;46.52;98948.59;6043876;23;20555;-80
2022/01/24 00:59:40;;;;;;;2.50;2.30;;;;;;;17.68;46.69;98940.16;6064369;23;20181;-83
2022/01/24 01:02:07;;;;;;;2.27;2.00;;;;;;;17.53;46.59;98911.19;6017246;23;20227;-85
2022/01/24 01:07:07;;;;;;;2.50;2.20;;;;;;;18.13;46.67;99013.56;6042047;23;20201;-84
2022/01/24 01:20:51;;;;;;;2.60;2.40;;;;;;;17.56;46.17;98895.28;6044658;23;20671;-84
2022/01/24 01:23:18;;;;;;;2.40;2.13;;;;;;;18.27;46.38;99025.53;6064045;23;20196;-84
2022/01/24 01:25:46;;;;;;;3.70;2.07;;;;;;;17.99;46.89;98973.59;6064243;23;20714;-83
2022/01/24 01:28:14;;;;;;;2.83;1.90;;;;;;;17.84;46.71;98947.16;6016923;23;20181;-83
2022/01/24 01:30:47;;;;;;;2.27;2.07;;;;;;;18.26;46.36;99031.38;6019591;23;20171;-90
2022/01/24 01:39:26;;;;;;;2.20;2.00;;;;;;;10.47;46.35;97653.44;6162032;23;20237;-90
2022/01/24 01:55:39;;;;;;;2.40;2.20;;;;;;;18.45;46.38;99018.25;6128197;23;20178;-83
2022/01/24 01:58:11;;;;;;;2.03;1.83;;;;;;;17.86;46.70;98918.50;6152970;23;20212;-85
2022/01/24 02:00:40;;;;;;;1.93;1.83;;;;;;;17.88;46.40;98916.94;6102027;23;20197;-83
2022/01/24 02:03:06;;;;;;;2.10;1.87;;;;;;;17.97;46.56;98920.09;6102364;23;20222;-86
2022/01/24 02:05:33;;;;;;;2.37;2.17;;;;;;;17.21;46.24;98785.28;6076670;23;20194;-84
2022/01/24 02:08:00;;;;;;;2.10;1.90;;;;;;;16.88;46.27;98730.63;6078219;23;20197;-84
2022/01/24 02:10:26;;;;;;;2.17;1.97;;;;;;;18.01;46.71;98926.25;6126468;23;20162;-84
2022/01/24 02:12:55;;;;;;;1.90;1.77;;;;;;;17.64;46.26;98871.22;6103082;23;20377;-82
2022/01/24 02:15:29;;;;;;;2.00;1.80;;;;;;;18.04;46.61;98931.53;6079304;23;20174;-84
2022/01/24 02:18:28;;;;;;;1.97;1.63;;;;;;;18.59;46.16;99022.56;6128876;23;20158;-84
2022/01/24 02:21:11;;;;;;;2.57;1.97;;;;;;;17.55;46.29;98851.16;6133810;23;20217;-83
2022/01/24 02:23:43;;;;;;;2.03;1.90;;;;;;;17.97;46.31;98919.22;6109219;23;20191;-84
2022/01/24 02:26:14;;;;;;;2.23;1.93;;;;;;;18.60;46.10;99025.22;6104501;23;20237;-84
2022/01/24 02:31:40;;;;;;;1.87;1.77;;;;;;;18.33;46.22;98982.66;6077748;23;20206;-84
2022/01/24 02:34:19;;;;;;;2.00;1.80;;;;;;;18.64;46.50;99024.63;6080825;23;20170;-84
2022/01/24 02:36:46;;;;;;;1.90;1.80;;;;;;;17.73;46.49;98867.63;6152739;23;20526;-81
2022/01/24 02:50:29;;;;;;;2.00;1.80;;;;;;;17.83;45.97;98854.72;6101571;23;20674;-83
2022/01/24 02:52:56;;;;;;;2.50;2.20;;;;;;;18.09;46.02;98910.69;6077918;23;20198;-84
2022/01/24 02:55:22;;;;;;;2.17;1.97;;;;;;;18.35;46.25;98945.44;6096764;23;20174;-83
2022/01/24 02:57:49;;;;;;;2.17;1.80;;;;;;;18.27;46.15;98916.09;6121564;23;20591;-84
2022/01/24 03:00:16;;;;;;;2.00;1.80;;;;;;;17.94;46.18;98860.50;6097395;23;20218;-84
2022/01/24 03:02:42;;;;;;;1.80;1.70;;;;;;;18.30;45.98;98923.94;6096730;23;20178;-84
2022/01/24 03:05:09;;;;;;;2.43;1.77;;;;;;;18.64;45.87;98976.22;6072183;23;20174;-83
2022/01/24 03:07:35;;;;;;;2.00;1.80;;;;;;;18.02;46.13;98872.94;6122976;23;20234;-83
2022/01/24 03:10:11;;;;;;;2.20;2.00;;;;;;;18.26;45.92;98916.88;6097972;23;20508;-84
2022/01/24 03:12:44;;;;;;;1.90;1.80;;;;;;;18.14;46.16;98890.63;6099844;23;20242;-83
2022/01/24 03:15:11;;;;;;;2.20;1.87;;;;;;;18.30;45.96;98915.41;6122388;23;20171;-83
2022/01/24 03:17:37;;;;;;;2.77;1.63;;;;;;;18.31;46.17;98918.06;6098052;23;20507;-83
2022/01/24 03:20:05;;;;;;;1.90;1.80;;;;;;;18.09;45.85;98879.31;6097836;23;20179;-84
2022/01/24 03:22:31;;;;;;;1.97;1.80;;;;;;;18.24;46.09;98900.66;6122107;23;20209;-83
2022/01/24 03:24:58;;;;;;;2.80;1.97;;;;;;;18.17;45.46;98884.09;6073572;23;20217;-83
2022/01/24 03:27:25;;;;;;;2.43;1.90;;;;;;;18.32;45.93;98906.22;6097860;23;20195;-84
2022/01/24 03:29:51;;;;;;;2.13;1.77;;;;;;;17.89;45.88;98839.84;6097793;23;20190;-83
2022/01/24 03:32:21;;;;;;;1.90;1.80;;;;;;;18.45;46.11;98945.31;6121748;23;20166;-89
2022/01/24 03:35:07;;;;;;;1.90;1.80;;;;;;;15.01;45.92;98351.03;6151343;23;20155;-89
2022/01/24 03:37:35;;;;;;;1.80;1.70;;;;;;;13.85;45.99;98116.28;6153887;23;20182;-87
2022/01/24 03:40:03;;;;;;;2.10;1.90;;;;;;;18.70;46.16;98968.09;6128715;23;20195;-90
2022/01/24 03:42:30;;;;;;;2.10;1.70;;;;;;;17.77;46.13;98811.09;6153112;23;20163;-89
2022/01/24 03:45:00;;;;;;;2.47;1.90;;;;;;;13.26;45.68;98015.34;6153112;23;20167;-89
2022/01/24 03:47:43;;;;;;;1.90;1.80;;;;;;;13.84;46.24;98149.00;6152740;23;20198;-86
2022/01/24 03:50:19;;;;;;;1.90;1.80;;;;;;;16.55;46.08;98585.38;6132063;23;20164;-90
2022/01/24 03:52:46;;;;;;;1.87;1.77;;;;;;;16.58;46.23;98676.94;6154828;23;20178;-89
2022/01/24 03:55:13;;;;;;;1.80;1.70;;;;;;;12.87;46.05;97936.88;6130480;23;20210;-90
2022/01/24 03:57:39;;;;;;;1.70;1.60;;;;;;;16.08;46.17;98504.47;6155006;23;20199;-90
2022/01/24 04:00:07;;;;;;;1.90;1.80;;;;;;;15.57;45.76;98416.53;6146933;23;20175;-81
2022/01/24 04:02:34;;;;;;;2.00;1.80;;;;;;;17.46;45.96;98738.75;6122540;23;20210;-83
2022/01/24 04:05:01;;;;;;;2.10;1.90;;;;;;;18.18;45.72;98862.94;6099076;23;20186;-83
2022/01/24 04:07:28;;;;;;;1.77;1.67;;;;;;;18.00;45.68;98826.16;6099462;23;20230;-84
2022/01/24 04:09:55;;;;;;;1.97;1.80;;;;;;;17.96;45.88;98829.31;6074897;23;20206;-83
2022/01/24 04:12:25;;;;;;;1.73;1.63;;;;;;;18.24;45.86;98870.09;6099698;23;20175;-84
2022/01/24 04:23:43;;;;;;;1.97;1.77;;;;;;;18.09;45.57;98820.81;6123310;23;20516;-83
2022/01/24 04:26:10;;;;;;;1.97;1.80;;;;;;;18.33;46.04;98864.72;6099767;23;20199;-84
2022/01/24 04:28:36;;;;;;;2.13;1.90;;;;;;;18.46;46.00;98877.44;6098685;23;20189;-83
2022/01/24 04:31:03;;;;;;;1.90;1.80;;;;;;;18.10;45.57;98840.34;6098931;23;20178;-83
2022/01/24 04:33:30;;;;;;;1.87;1.77;;;;;;;18.38;45.70;98858.28;6097748;23;20635;-82
2022/01/24 04:35:56;;;;;;;2.03;1.93;;;;;;;18.85;45.87;98949.56;6075389;23;20222;-82
2022/01/24 04:38:23;;;;;;;1.60;1.50;;;;;;;18.33;45.51;98846.88;6098400;23;20402;-83
2022/01/24 04:40:53;;;;;;;1.67;1.57;;;;;;;18.16;45.75;98820.38;6074420;23;20179;-84
2022/01/24 04:51:15;;;;;;;2.00;1.80;;;;;;;18.83;45.83;98940.94;6123333;23;20626;-82
2022/01/24 04:56:08;;;;;;;2.07;1.87;;;;;;;18.44;46.09;98872.25;6098449;23;20222;-83
2022/01/24 04:58:34;;;;;;;1.70;1.60;;;;;;;18.41;45.68;98866.13;6099204;23;20163;-84
2022/01/24 05:01:01;;;;;;;1.70;1.60;;;;;;;18.36;45.57;98853.06;6098537;23;20167;-82
2022/01/24 05:03:28;;;;;;;1.60;1.50;;;;;;;18.00;45.74;98789.69;6097688;23;20254;-84
2022/01/24 05:05:54;;;;;;;1.63;1.53;;;;;;;18.42;45.62;98860.22;6122577;23;20689;-84
2022/01/24 05:08:21;;;;;;;2.13;1.93;;;;;;;18.16;45.84;98821.28;6098875;23;20555;-83
2022/01/24 05:11:02;;;;;;;2.13;1.70;;;;;;;18.21;45.76;98832.59;6097759;23;20230;-83
2022/01/24 05:24:19;;;;;;;1.80;1.70;;;;;;;18.44;45.60;98889.22;6123731;23;20249;-84
2022/01/24 05:26:45;;;;;;;2.23;1.93;;;;;;;18.24;45.92;98855.69;6075523;23;20215;-83
2022/01/24 05:29:12;;;;;;;1.80;1.70;;;;;;;17.31;45.97;98686.91;6075939;23;20175;-81
2022/01/24 05:31:39;;;;;;;1.77;1.67;;;;;;;18.82;45.95;98951.03;6075021;23;20198;-83
2022/01/24 05:34:05;;;;;;;1.97;1.70;;;;;;;17.32;45.81;98690.34;6099384;23;20211;-83
2022/01/24 05:36:32;;;;;;;1.90;1.70;;;;;;;18.18;45.85;98839.19;6099237;23;20195;-84
2022/01/24 05:39:00;;;;;;;1.70;1.60;;;;;;;18.00;46.21;98810.91;6100120;23;20187;-83
2022/01/24 05:41:27;;;;;;;1.73;1.63;;;;;;;18.12;46.02;98826.94;6124844;23;20557;-84
2022/01/24 05:43:54;;;;;;;1.70;1.60;;;;;;;18.66;45.81;98922.84;6125790;23;20179;-83
2022/01/24 05:46:21;;;;;;;1.67;1.57;;;;;;;18.59;45.89;98911.41;6124724;23;20210;-82
2022/01/24 05:48:47;;;;;;;1.73;1.60;;;;;;;18.40;46.02;98883.03;6123464;23;20183;-84
2022/01/24 05:51:15;;;;;;;1.77;1.67;;;;;;;18.78;46.12;98949.09;6075925;23;20209;-86
2022/01/24 05:53:41;;;;;;;1.97;1.87;;;;;;;17.94;46.06;98807.09;6099922;23;20213;-85
2022/01/24 05:56:08;;;;;;;3.20;1.80;;;;;;;17.32;46.37;98693.72;6100627;23;20198;-85
2022/01/24 05:58:34;;;;;;;3.17;1.83;;;;;;;16.85;46.78;98613.63;6076607;23;20175;-86
2022/01/24 06:01:01;;;;;;;6.87;2.03;;;;;;;18.57;46.65;98919.72;6099099;23;20193;-86
2022/01/24 06:03:28;;;;;;;3.87;1.80;;;;;;;18.12;46.30;98854.91;6076136;23;20179;-85
2022/01/24 06:05:57;;;;;;;3.47;1.90;;;;;;;14.04;46.50;98138.63;6076651;23;20199;-86
2022/01/24 06:08:23;;;;;;;3.73;1.70;;;;;;;15.49;46.08;98410.94;6075292;23;20242;-85
2022/01/24 06:10:50;;;;;;;2.27;1.80;;;;;;;17.66;46.12;98767.97;6123041;23;20206;-87
2022/01/24 06:13:17;;;;;;;11.37;1.97;;;;;;;18.35;45.90;98874.19;6074772;23;20226;-84
2022/01/24 06:15:43;;;;;;;4.17;1.70;;;;;;;18.21;45.86;98863.13;6074461;23;20175;-87
2022/01/24 06:18:10;;;;;;;3.67;2.17;;;;;;;17.44;45.45;98744.53;6097602;23;20178;-87
2022/01/24 06:20:41;;;;;;;3.97;2.07;;;;;;;17.07;45.35;98675.16;6098602;23;20616;-89
2022/01/24 06:23:11;;;;;;;4.73;2.30;;;;;;;18.60;45.20;98933.53;6073911;23;20202;-88
2022/01/24 06:25:38;;;;;;;4.40;2.23;;;;;;;18.73;44.69;98964.06;6075403;23;20218;-88
2022/01/24 06:28:08;;;;;;;2.50;2.20;;;;;;;18.85;43.36;99013.25;6099926;23;20176;-87
2022/01/24 06:30:35;;;;;;;3.57;2.23;;;;;;;18.45;43.12;98913.88;6075094;23;20237;-88
2022/01/24 06:33:02;;;;;;;4.87;2.50;;;;;;;18.61;43.75;98944.59;6075050;23;20175;-88
2022/01/24 06:35:28;;;;;;;3.67;2.23;;;;;;;17.39;43.50;98756.91;6074623;23;20190;-87
2022/01/24 06:37:55;;;;;;;2.50;2.30;;;;;;;18.13;43.67;98868.53;6100766;23;20174;-88
2022/01/24 06:40:22;;;;;;;4.10;2.10;;;;;;;16.99;44.12;98661.09;6079686;23;20493;-86
2022/01/24 06:42:49;;;;;;;2.57;2.07;;;;;;;18.13;44.00;98877.06;6079813;23;20194;-87
2022/01/24 06:45:15;;;;;;;2.33;2.00;;;;;;;17.54;44.36;98769.72;6079005;23;20185;-87
2022/01/24 06:47:44;;;;;;;3.60;2.40;;;;;;;18.40;44.52;98946.66;6079439;23;20194;-88
2022/01/24 06:50:11;;;;;;;2.30;2.10;;;;;;;18.16;44.45;98895.06;6080250;23;20181;-89
2022/01/24 06:52:37;;;;;;;4.20;2.30;;;;;;;17.29;44.42;98771.44;6081833;23;20163;-90
2022/01/24 06:55:05;;;;;;;3.17;1.97;;;;;;;18.45;44.75;98945.31;6080600;23;20620;-90
2022/01/24 06:57:32;;;;;;;3.07;2.47;;;;;;;18.17;44.75;98891.72;6080570;23;20716;-90
2022/01/24 06:59:58;;;;;;;3.17;2.50;;;;;;;18.31;45.00;98940.97;6081577;23;20170;-89
2022/01/24 07:02:25;;;;;;;3.30;1.80;;;;;;;17.86;44.76;98859.13;6082170;23;20170;-88
2022/01/24 07:04:52;;;;;;;2.27;1.80;;;;;;;16.91;44.85;98685.13;6103950;23;20174;-88
2022/01/24 07:07:19;;;;;;;4.97;2.00;;;;;;;18.16;44.87;98895.06;6079902;23;20230;-91
2022/01/24 07:09:45;;;;;;;3.10;2.00;;;;;;;17.56;44.89;98802.09;6080651;23;20170;-88
2022/01/24 07:12:12;;;;;;;4.63;2.13;;;;;;;17.03;45.43;98728.19;6103729;23;20236;-88
2022/01/24 07:14:41;;;;;;;2.40;2.10;;;;;;;18.63;45.29;98984.66;6080317;23;20174;-88
2022/01/24 07:19:37;;;;;;;2.10;1.90;;;;;;;17.11;45.23;98727.91;6106742;23;20162;-89
2022/01/24 07:22:04;;;;;;;3.33;2.10;;;;;;;17.31;45.33;98778.38;6079582;23;20174;-88
2022/01/24 07:24:31;;;;;;;2.13;1.90;;;;;;;18.91;45.28;99041.66;6080102;23;20638;-89
2022/01/24 07:26:59;;;;;;;3.17;1.83;;;;;;;16.81;45.49;98692.88;6104772;23;20267;-89
2022/01/24 07:29:26;;;;;;;4.27;2.00;;;;;;;16.39;45.51;98609.72;6082047;23;20233;-87
2022/01/24 07:31:52;;;;;;;2.00;1.80;;;;;;;18.07;45.52;98925.00;6082725;23;20174;-89
2022/01/24 07:34:19;;;;;;;2.03;1.90;;;;;;;17.96;45.47;98876.75;6083800;23;20225;-86
2022/01/24 07:36:46;;;;;;;2.43;2.13;;;;;;;18.91;46.06;99056.03;6081936;23;20191;-88
2022/01/24 07:39:13;;;;;;;4.13;2.00;;;;;;;18.30;46.32;98972.28;6076522;23;20184;-89
2022/01/24 07:41:47;;;;;;;2.23;1.73;;;;;;;17.06;45.72;98723.31;6075851;23;20499;-89
2022/01/24 07:44:14;;;;;;;2.33;1.90;;;;;;;16.87;45.84;98685.69;6078315;23;20182;-89
2022/01/24 07:46:44;;;;;;;2.30;1.80;;;;;;;18.66;45.94;99000.13;6100529;23;20198;-89
2022/01/24 07:49:12;;;;;;;1.80;1.70;;;;;;;17.86;46.00;98869.31;6077853;23;20577;-89
2022/01/24 07:51:40;;;;;;;2.00;1.70;;;;;;;18.64;46.06;99055.16;6076251;23;20175;-89
2022/01/24 07:54:06;;;;;;;3.47;2.27;;;;;;;16.70;45.20;98665.06;6076292;23;20230;-86
2022/01/24 07:56:34;;;;;;;2.83;2.30;;;;;;;17.69;44.27;98860.59;6077037;23;20199;-85
2022/01/24 07:59:00;;;;;;;2.90;2.57;;;;;;;18.83;44.88;99035.19;6101231;23;20195;-87
2022/01/24 08:01:27;;;;;;;3.93;2.50;;;;;;;16.83;44.87;98713.31;6101248;23;20194;-87
2022/01/24 08:03:54;;;;;;;3.40;2.30;;;;;;;17.55;44.90;98827.41;6102352;23;20562;-86
2022/01/24 08:06:21;;;;;;;5.07;2.57;;;;;;;18.15;45.19;98935.69;6077592;23;20203;-87
2022/01/24 08:08:48;;;;;;;3.33;2.37;;;;;;;17.61;45.60;98860.84;6077405;23;20242;-86
2022/01/24 08:11:18;;;;;;;3.03;2.17;;;;;;;18.21;45.74;98975.09;6125301;23;20171;-86
2022/01/24 08:13:45;;;;;;;3.03;2.50;;;;;;;17.27;46.00;98800.94;6078075;23;20175;-86
2022/01/24 08:16:13;;;;;;;2.87;2.30;;;;;;;18.50;46.12;99001.59;6077684;23;20191;-86
2022/01/24 08:18:40;;;;;;;2.50;2.23;;;;;;;16.42;45.95;98654.69;6101051;23;20246;-85
2022/01/24 08:21:07;;;;;;;2.30;2.10;;;;;;;18.22;46.23;98978.53;6076676;23;20175;-85
2022/01/24 08:23:33;;;;;;;2.50;2.23;;;;;;;17.26;46.18;98807.66;6100533;23;20175;-83
2022/01/24 08:26:00;;;;;;;2.60;2.40;;;;;;;14.73;46.32;98382.78;6077030;23;20819;-86
2022/01/24 08:28:27;;;;;;;2.23;2.00;;;;;;;16.12;46.45;98604.44;6100498;23;20191;-86
2022/01/24 08:30:54;;;;;;;2.43;2.00;;;;;;;18.27;46.64;98993.31;6076101;23;20179;-87
2022/01/24 08:33:20;;;;;;;2.50;2.30;;;;;;;16.77;46.29;98743.38;6099996;23;20197;-86
2022/01/24 08:35:47;;;;;;;3.07;2.30;;;;;;;17.43;46.33;98875.78;6076202;23;20174;-86
2022/01/24 08:38:14;;;;;;;2.17;1.97;;;;;;;16.98;46.36;98777.81;6099815;23;20206;-87
2022/01/24 08:40:41;;;;;;;2.40;2.20;;;;;;;18.15;46.60;98992.50;6099653;23;20683;-87
2022/01/24 08:43:08;;;;;;;2.13;1.93;;;;;;;16.46;46.42;98681.19;6100246;23;20171;-87
2022/01/24 08:45:58;;;;;;;3.33;2.30;;;;;;;16.88;46.71;98808.44;6075101;23;20174;-86
2022/01/24 08:48:25;;;;;;;2.40;2.20;;;;;;;16.67;46.65;98721.53;6084207;23;20677;-87
2022/01/24 08:50:54;;;;;;;4.63;2.20;;;;;;;17.50;46.62;98865.22;6099555;23;20215;-87
2022/01/24 08:53:31;;;;;;;3.33;2.00;;;;;;;16.37;46.81;98684.81;6077867;23;20622;-86
2022/01/24 08:56:18;;;;;;;5.10;2.40;;;;;;;17.90;47.01;98945.91;6104859;23;20230;-86
2022/01/24 08:58:45;;;;;;;3.67;2.30;;;;;;;16.96;46.99;98774.31;6076463;23;20167;-87
2022/01/24 09:01:12;;;;;;;2.83;2.10;;;;;;;16.66;46.61;98764.59;6075698;23;20214;-87
2022/01/24 09:03:41;;;;;;;2.73;2.07;;;;;;;17.75;46.69;98927.09;6075857;23;20574;-87
2022/01/24 09:06:08;;;;;;;2.10;1.83;;;;;;;17.40;46.78;98873.00;6076904;23;20226;-86
2022/01/24 09:08:35;;;;;;;2.93;2.30;;;;;;;17.41;46.74;98856.97;6099595;23;20193;-87
2022/01/24 09:11:03;;;;;;;2.23;2.03;;;;;;;16.49;46.81;98679.72;6075790;23;20186;-86
2022/01/24 09:13:30;;;;;;;3.83;2.37;;;;;;;17.13;46.65;98784.78;6099446;23;20175;-84
2022/01/24 09:15:57;;;;;;;3.40;2.07;;;;;;;13.94;46.92;98277.72;6099690;23;20195;-89
2022/01/24 09:18:24;;;;;;;2.17;1.97;;;;;;;13.69;46.93;98204.41;6074914;23;20246;-88
2022/01/24 09:20:51;;;;;;;4.30;2.20;;;;;;;16.61;46.97;98749.06;6098960;23;20175;-87
2022/01/24 09:23:18;;;;;;;2.93;2.47;;;;;;;13.27;46.90;98193.78;6098688;23;20205;-88
2022/01/24 09:25:44;;;;;;;2.30;2.10;;;;;;;13.20;47.35;98100.72;6098285;23;20631;-87
2022/01/24 09:28:11;;;;;;;3.30;2.47;;;;;;;12.45;46.68;98048.19;6123459;23;20187;-88
2022/01/24 09:30:38;;;;;;;3.30;2.27;;;;;;;11.71;46.97;97937.69;6075296;23;20623;-87
2022/01/24 09:33:04;;;;;;;3.23;2.20;;;;;;;11.40;46.92;97845.56;6098718;23;20203;-87
2022/01/24 09:35:31;;;;;;;4.70;2.57;;;;;;;12.59;46.60;98049.19;6074630;23;20226;-87
2022/01/24 09:37:58;;;;;;;4.87;3.17;;;;;;;17.49;47.26;98926.13;6101834;23;20167;-87
2022/01/24 09:40:25;;;;;;;6.33;3.03;;;;;;;14.46;46.89;98379.25;6104206;23;20163;-87
2022/01/24 09:42:52;;;;;;;3.70;3.00;;;;;;;13.18;46.88;98125.00;6081188;23;20164;-84
2022/01/24 09:45:19;;;;;;;4.47;3.20;;;;;;;16.19;47.05;98668.34;6080666;23;20188;-87
2022/01/24 09:47:46;;;;;;;6.50;4.27;;;;;;;17.44;44.16;98867.38;6104428;23;20217;-87
2022/01/24 09:50:13;;;;;;;5.40;4.60;;;;;;;17.45;42.00;98934.34;6104115;23;20338;-86
2022/01/24 09:52:41;;;;;;;6.30;4.70;;;;;;;18.52;41.34;99061.13;6104528;23;20190;-85
2022/01/24 09:55:08;;;;;;;6.83;4.70;;;;;;;18.06;41.42;98974.09;6104172;23;20645;-88
2022/01/24 09:57:34;;;;;;;7.17;4.40;;;;;;;17.48;42.33;98878.63;6080502;23;20194;-86
2022/01/24 10:00:01;;;;;;;3.87;3.43;;;;;;;18.65;44.10;99068.78;6080441;23;20217;-88
2022/01/24 10:02:27;;;;;;;7.60;3.60;;;;;;;17.35;45.36;98858.22;6103704;23;20197;-88
2022/01/24 10:05:11;;;;;;;8.20;3.50;;;;;;;18.07;46.35;98988.59;6104318;23;20241;-89
2022/01/24 10:07:39;;;;;;;10.90;3.80;;;;;;;18.38;47.14;99027.13;6080136;23;20195;-88
2022/01/24 10:10:06;;;;;;;5.10;3.40;;;;;;;18.03;47.32;98975.59;6128156;23;20185;-86
2022/01/24 10:18:10;;;;;;;9.00;3.70;;;;;;;18.24;47.29;98988.03;6112078;23;20239;-87
2022/01/24 10:20:40;;;;;;;6.70;3.33;;;;;;;17.86;46.81;98922.72;6080646;23;20170;-86
2022/01/24 10:23:12;;;;;;;4.93;3.40;;;;;;;18.76;47.06;99073.78;6102685;23;20196;-86
2022/01/24 10:26:06;;;;;;;10.23;3.63;;;;;;;18.77;46.54;99067.03;6127110;23;20162;-86
2022/01/24 10:28:39;;;;;;;6.37;3.33;;;;;;;17.58;46.53;98864.09;6097791;23;20729;-86
2022/01/24 10:31:16;;;;;;;4.97;3.27;;;;;;;18.20;46.50;98969.91;6078724;23;20178;-87
2022/01/24 10:34:10;;;;;;;3.30;2.97;;;;;;;18.04;46.48;98944.28;6102148;23;20180;-87
2022/01/24 10:36:38;;;;;;;4.90;3.47;;;;;;;18.76;46.37;99058.50;6105668;23;20264;-86
2022/01/24 10:39:07;;;;;;;8.53;3.23;;;;;;;18.76;46.77;99061.06;6152660;23;20182;-87
2022/01/24 10:44:33;;;;;;;4.67;2.80;;;;;;;17.18;46.50;98792.72;6108133;23;20189;-86
2022/01/24 10:47:13;;;;;;;4.10;2.70;;;;;;;18.05;47.01;98944.38;6105941;23;20225;-88
2022/01/24 10:49:40;;;;;;;5.73;2.97;;;;;;;18.31;46.54;98984.22;6103071;23;20677;-87
2022/01/24 10:52:15;;;;;;;5.47;2.43;;;;;;;18.12;46.63;98959.25;6103204;23;20664;-87
2022/01/24 10:54:41;;;;;;;5.63;3.10;;;;;;;18.30;46.65;98990.09;6080332;23;20190;-86
2022/01/24 11:18:36;;;;;;;3.37;2.60;;;;;;;15.89;46.87;98619.75;6155179;23;20200;-87
2022/01/24 11:21:12;;;;;;;3.30;2.60;;;;;;;16.53;46.94;98652.91;6105762;23;20174;-86
2022/01/24 11:23:40;;;;;;;3.73;2.63;;;;;;;18.10;46.80;98920.13;6107249;23;20197;-88
2022/01/24 11:26:07;;;;;;;3.03;2.50;;;;;;;17.86;46.88;98876.94;6074033;23;20217;-87
2022/01/24 11:28:34;;;;;;;4.13;2.33;;;;;;;17.71;46.55;98845.44;6052924;23;20191;-87
2022/01/24 11:31:11;;;;;;;2.77;2.50;;;;;;;18.36;46.64;98959.97;6076875;23;20179;-87
2022/01/24 11:33:40;;;;;;;2.83;2.33;;;;;;;18.37;46.70;98963.38;6053261;23;20159;-88
2022/01/24 11:36:08;;;;;;;2.83;2.30;;;;;;;17.00;46.78;98713.66;6053065;23;20202;-86
2022/01/24 11:38:38;;;;;;;2.40;2.17;;;;;;;17.28;46.54;98756.97;6053022;23;20171;-85
2022/01/24 11:41:06;;;;;;;3.03;2.50;;;;;;;18.85;46.69;99030.19;6100557;23;20507;-84
2022/01/24 11:43:44;;;;;;;2.60;2.40;;;;;;;18.85;46.76;99020.88;6076453;23;20185;-85
2022/01/24 11:46:31;;;;;;;5.03;2.53;;;;;;;17.95;46.70;98867.38;6075787;23;20198;-85
2022/01/24 11:49:07;;;;;;;3.53;2.00;;;;;;;18.52;46.59;98969.47;6099801;23;20195;-85
2022/01/24 11:51:33;;;;;;;4.13;2.30;;;;;;;18.63;46.43;98983.78;6076158;23;20229;-85
2022/01/24 11:54:01;;;;;;;5.07;2.40;;;;;;;18.16;46.55;98900.16;6076499;23;20175;-85
2022/01/24 11:56:31;;;;;;;2.60;2.40;;;;;;;18.41;46.84;98942.47;6075738;23;20253;-84
2022/01/24 11:59:28;;;;;;;5.67;2.30;;;;;;;18.87;47.01;99013.34;6050015;23;20477;-84
2022/01/24 12:02:09;;;;;;;3.03;2.17;;;;;;;17.99;46.89;98861.69;6067511;23;20190;-86
2022/01/24 12:05:03;;;;;;;3.60;2.23;;;;;;;18.88;46.79;99010.00;6073713;23;20151;-85
2022/01/24 12:07:31;;;;;;;3.43;2.33;;;;;;;17.98;46.74;98865.00;6073149;23;20210;-85
2022/01/24 12:10:23;;;;;;;2.50;2.30;;;;;;;18.87;46.83;99011.69;6074220;23;20246;-83
2022/01/24 12:12:51;;;;;;;2.90;2.17;;;;;;;18.06;46.63;98863.84;6096314;23;20202;-86
2022/01/24 12:15:39;;;;;;;2.70;2.10;;;;;;;18.89;46.77;99012.63;6097696;23;20167;-86
2022/01/24 12:18:12;;;;;;;2.47;2.17;;;;;;;18.56;46.72;98958.72;6092019;23;20183;-85
2022/01/24 12:20:40;;;;;;;2.90;2.20;;;;;;;18.89;46.93;99012.63;6092556;23;20199;-85
2022/01/24 12:23:16;;;;;;;3.10;2.47;;;;;;;18.89;46.86;99002.44;6092246;23;20179;-84
2022/01/24 12:26:05;;;;;;;2.33;2.13;;;;;;;18.70;47.20;98968.97;6091915;23;20331;-85
2022/01/24 12:28:41;;;;;;;2.83;1.90;;;;;;;18.87;47.17;98998.06;6046390;23;20235;-84
2022/01/24 12:31:45;;;;;;;2.57;2.07;;;;;;;18.36;46.88;98908.16;6094217;23;20186;-85
2022/01/24 12:34:28;;;;;;;4.23;2.43;;;;;;;18.62;44.81;98951.47;6071967;23;20175;-84
2022/01/24 12:37:03;;;;;;;2.93;2.20;;;;;;;18.84;44.92;98988.56;6068617;23;20192;-84
2022/01/24 12:39:36;;;;;;;4.23;2.53;;;;;;;18.03;45.13;98853.47;6092223;23;20179;-83
2022/01/24 12:42:10;;;;;;;3.67;2.40;;;;;;;18.17;45.43;98879.00;6091635;23;20592;-86
2022/01/24 12:47:53;;;;;;;2.53;2.33;;;;;;;13.16;45.56;98034.81;6122087;23;20224;-88
2022/01/24 12:50:23;;;;;;;2.00;1.90;;;;;;;13.17;45.91;98039.97;6099877;23;20172;-89
2022/01/24 12:52:51;;;;;;;2.40;2.17;;;;;;;12.11;45.75;97872.69;6123767;23;20169;-89
2022/01/24 12:55:18;;;;;;;2.77;2.47;;;;;;;14.42;45.73;98245.78;6123720;23;20163;-89
2022/01/24 12:57:45;;;;;;;3.57;2.30;;;;;;;13.60;46.20;98107.81;6123650;23;20191;-89
2022/01/24 13:05:49;;;;;;;3.10;2.20;;;;;;;15.45;46.09;98373.50;6146369;23;20181;-88
2022/01/24 13:08:17;;;;;;;2.60;2.10;;;;;;;15.92;46.22;98458.59;6097466;23;20655;-85
2022/01/24 13:10:48;;;;;;;2.93;2.00;;;;;;;17.60;46.38;98767.59;6122280;23;20685;-85
2022/01/24 13:13:19;;;;;;;2.37;2.17;;;;;;;18.36;46.16;98909.06;6079926;23;20159;-90
2022/01/24 13:21:31;;;;;;;2.83;2.03;;;;;;;16.50;46.49;98556.28;6122266;23;20177;-89
2022/01/24 13:24:01;;;;;;;2.13;1.93;;;;;;;14.14;46.27;98194.06;6129726;23;20152;-89
2022/01/24 13:26:42;;;;;;;4.67;2.10;;;;;;;15.20;46.90;98382.75;6124375;23;20159;-90
2022/01/24 13:29:09;;;;;;;3.17;2.00;;;;;;;14.78;48.08;98234.72;6101149;23;20168;-89
2022/01/24 13:31:53;;;;;;;4.27;2.40;;;;;;;12.93;48.09;97994.47;6084034;23;20167;-89
2022/01/24 13:34:23;;;;;;;7.73;2.10;;;;;;;13.59;48.17;98017.66;6102518;23;20144;-90
2022/01/24 13:37:06;;;;;;;5.53;2.27;;;;;;;14.61;48.05;98258.91;6054684;23;20137;-90
2022/01/24 13:39:53;;;;;;;3.93;2.20;;;;;;;16.34;48.23;98556.88;6041260;23;20664;-85
2022/01/24 13:42:23;;;;;;;2.57;2.20;;;;;;;18.23;48.73;98819.97;6060691;23;20184;-84
2022/01/24 13:44:49;;;;;;;3.77;2.20;;;;;;;18.19;48.59;98805.31;6037589;23;20615;-85
2022/01/24 13:47:17;;;;;;;4.23;2.00;;;;;;;13.03;48.33;97927.13;6020527;23;20187;-91
2022/01/24 13:49:44;;;;;;;3.53;2.40;;;;;;;13.10;48.53;97923.38;6070011;23;20172;-90
2022/01/24 13:52:12;;;;;;;3.30;1.90;;;;;;;15.17;48.68;98272.78;6046526;23;20195;-90
2022/01/24 14:00:06;;;;;;;2.83;2.30;;;;;;;14.75;48.42;98196.56;6184305;23;20154;-90
2022/01/24 14:03:07;;;;;;;2.80;2.00;;;;;;;14.86;48.49;98201.56;6149020;23;20146;-90
2022/01/24 14:06:14;;;;;;;4.37;2.23;;;;;;;14.83;48.67;98256.16;6119887;23;20208;-91
2022/01/24 14:08:42;;;;;;;4.27;2.13;;;;;;;14.94;48.14;98219.78;6148325;23;20151;-90
2022/01/24 14:11:16;;;;;;;2.20;1.90;;;;;;;12.26;48.80;97740.22;6101606;23;20611;-85
2022/01/24 14:13:54;;;;;;;3.63;2.50;;;;;;;18.28;49.00;98782.97;6101562;23;20552;-85
2022/01/24 14:17:02;;;;;;;2.03;1.83;;;;;;;18.32;49.25;98797.66;6077636;23;20194;-83